Kirkland, WA

3:53 PM PDT on September 02, 2014 (GMT -0700)
Kirkland, Wa | Change Station
CLOSE
Current Station
Personal Weather Station
Location: Kirkland, WA
Elevation: 233 ft
Nearby Weather Stations

Elev 233 ft 47.69 °N, 122.19 °W | Updated 1 second ago

Overcast
Overcast
63.5 °F
Feels Like 63.5 °F
N
2.4
Wind Variable Wind from NW
Gusts 3.1 mph

Today
High -- | Low -- °F
--% Chance of Precip.
Yesterday
High -- | Low -- °F
Precip. -- in
6:28 AM 7:47 PM
First Quarter, 55% visible
Pressure 29.83 in
Visibility 10.0 miles
Clouds Few 4800 ft
Mostly Cloudy 7000 ft
Mostly Cloudy 9500 ft
Dew Point 52 °F
Humidity 67%
Rainfall 0.00 in
Snow Depth Not available.
UV 3 out of 12
Pollen 2.50 out of 12
Air Quality Not available.
Flu Activity Not available.
METAR KBFI 022153Z 22012G18KT 10SM FEW048 BKN070 BKN095 21/11 A2983 RMK AO2 RAE49 SLP102 P0000 T02110111

More Conditions Fewer Conditions

Pressure 29.83 in
Visibility 10.0 miles
Clouds Few 4800 ft
Mostly Cloudy 7000 ft
Mostly Cloudy 9500 ft
Dew Point 52 °F
Humidity 67%
Rainfall 0.00 in
Snow Depth Not available.
UV 3 out of 12
Pollen 2.50 out of 12
Air Quality Not available.
Flu Activity Not available.
METAR KBFI 022153Z 22012G18KT 10SM FEW048 BKN070 BKN095 21/11 A2983 RMK AO2 RAE49 SLP102 P0000 T02110111

More Conditions Fewer Conditions

10-Day Weather Forecast

Almanac

Astronomy

Sep. 02, 2014 Rise Set
Actual Time 6:28 AM PDT 7:47 PM PDT
Civil Twilight 5:56 AM PDT 8:18 PM PDT
Nautical Twilight 5:18 AM PDT 8:57 PM PDT
Astronomical Twilight 4:36 AM PDT 9:38 PM PDT
Moon 2:48 PM PDT No Moon Set
Length of Visible Light 14h 22m
Length of Day
13h 18m
Tomorrow will be 3m 19s shorter.
First Quarter, 55% of the Moon is Illuminated
Today
First Quarter
Sep 8
Full
Sep 15
Last Quarter
Sep 24
New
Oct 1
First Quarter

Today's Extremes

State Highs State Lows

Community

WunderPhotos

Upload Photos

1,749,791 photos uploaded!

Nearby

Snow Depth

Station Depth Elevation
Alpine Meadows 0 in 3500 ft
Mount Crag 0 in 4050 ft
Olallie Meadows 0 in 3700 ft
Dungeness 0 in 4100 ft
Meadows Pass 0 in 3500 ft

Earthquake Activity

City Distance Mag. Time & Date
No recent earthquake activity has been reported nearby.
Minimum magnitude displayed is 2.5.

Coastal Water Temperatures

Place Temperature
Port Townsend, WA 53.1 °F
Seattle, WA 55.9 °F
Friday Harbor, WA 52.0 °F
Tacoma, WA 55.0 °F

Nearby Weather Stations